KFAY

Fayetteville Regional / Grannis Field Airport

Fayetteville, North Carolina, USA
METAR KFAY 182053Z 23014KT 10SM FEW049 BKN060 33/21 A2990 RMK AO2 LTG DSNT N AND NW SLP120 T03280211 56025
Observed Flight Rules
Aug-18 @ 20:53 UTC (60 minutes ago) Visual Flight Rules
Wind Visibility Clouds
230° at 14 knots 10 miles
  • Few at 4,900' AGL
  • Broken at 6,000' AGL
Temperatures Readings
Current 33°C / 91°F
Dewpoint 21°C / 70°F
Humidity 49%
Altimeter 29.9" Hg
Pressure 1012 hPa
Elevation 55
METAR KFAY 182053Z 23014KT 10SM FEW049 BKN060 33/21 A2990 RMK AO2 LTG DSNT N AND NW SLP120 T03280211 56025
Observed Flight Rules
Aug-18 @ 20:53 UTC
(60 minutes ago)
VFR
Wind Visibility
230° at 14 knots 10 miles
Clouds
  • Few at 4,900' AGL
  • Broken at 6,000' AGL
Temperature Dewpoint
33°C / 91°F 21°C / 70°F
Humidity Altimeter Pressure
49% 29.9" Hg 1012 hPa